sensor_id;sensor_type;location;lat;lon;timestamp;temperature;humidity
57552;DHT22;43379;48.160;14.036;2023-07-31T00:00:06;20.10;99.90
57552;DHT22;43379;48.160;14.036;2023-07-31T00:02:34;20.20;99.90
57552;DHT22;43379;48.160;14.036;2023-07-31T00:05:00;20.20;99.90
57552;DHT22;43379;48.160;14.036;2023-07-31T00:07:26;20.20;99.90
57552;DHT22;43379;48.160;14.036;2023-07-31T00:09:52;20.20;99.90
57552;DHT22;43379;48.160;14.036;2023-07-31T00:12:19;20.20;99.90
57552;DHT22;43379;48.160;14.036;2023-07-31T00:14:45;20.20;99.90
57552;DHT22;43379;48.160;14.036;2023-07-31T00:17:11;20.20;99.90
57552;DHT22;43379;48.160;14.036;2023-07-31T00:19:37;20.20;99.90
57552;DHT22;43379;48.160;14.036;2023-07-31T00:22:03;20.20;99.90
57552;DHT22;43379;48.160;14.036;2023-07-31T00:24:28;20.20;99.90
57552;DHT22;43379;48.160;14.036;2023-07-31T00:26:54;20.10;99.90
57552;DHT22;43379;48.160;14.036;2023-07-31T00:29:19;20.10;99.90
57552;DHT22;43379;48.160;14.036;2023-07-31T00:31:45;20.10;99.90
57552;DHT22;43379;48.160;14.036;2023-07-31T00:34:11;20.10;99.90
57552;DHT22;43379;48.160;14.036;2023-07-31T00:36:36;20.00;99.90
57552;DHT22;43379;48.160;14.036;2023-07-31T00:39:02;20.00;99.90
57552;DHT22;43379;48.160;14.036;2023-07-31T00:41:28;20.00;99.90
57552;DHT22;43379;48.160;14.036;2023-07-31T00:43:53;19.90;99.90
57552;DHT22;43379;48.160;14.036;2023-07-31T00:46:20;20.00;99.90
57552;DHT22;43379;48.160;14.036;2023-07-31T00:48:45;20.00;99.90
57552;DHT22;43379;48.160;14.036;2023-07-31T00:51:11;20.00;99.90
57552;DHT22;43379;48.160;14.036;2023-07-31T00:53:37;20.00;99.90
57552;DHT22;43379;48.160;14.036;2023-07-31T00:56:03;20.00;99.90
57552;DHT22;43379;48.160;14.036;2023-07-31T00:58:30;19.90;99.90
57552;DHT22;43379;48.160;14.036;2023-07-31T01:00:56;19.90;99.90
57552;DHT22;43379;48.160;14.036;2023-07-31T01:03:21;19.90;99.90
57552;DHT22;43379;48.160;14.036;2023-07-31T01:08:48;19.90;99.90
57552;DHT22;43379;48.160;14.036;2023-07-31T01:11:27;19.90;99.90
57552;DHT22;43379;48.160;14.036;2023-07-31T01:13:53;19.90;99.90
57552;DHT22;43379;48.160;14.036;2023-07-31T01:16:19;19.90;99.90
57552;DHT22;43379;48.160;14.036;2023-07-31T01:18:45;19.80;99.90
57552;DHT22;43379;48.160;14.036;2023-07-31T01:24:22;19.80;99.90
57552;DHT22;43379;48.160;14.036;2023-07-31T01:29:43;19.80;99.90
57552;DHT22;43379;48.160;14.036;2023-07-31T01:32:13;19.80;99.90
57552;DHT22;43379;48.160;14.036;2023-07-31T01:34:41;19.80;99.90
57552;DHT22;43379;48.160;14.036;2023-07-31T01:37:07;19.70;99.90
57552;DHT22;43379;48.160;14.036;2023-07-31T01:39:32;19.70;99.90
57552;DHT22;43379;48.160;14.036;2023-07-31T01:41:58;19.70;99.90
57552;DHT22;43379;48.160;14.036;2023-07-31T01:44:24;19.60;99.90
57552;DHT22;43379;48.160;14.036;2023-07-31T01:46:49;19.60;99.90
57552;DHT22;43379;48.160;14.036;2023-07-31T01:49:15;19.50;99.90
57552;DHT22;43379;48.160;14.036;2023-07-31T01:51:40;19.50;99.90
57552;DHT22;43379;48.160;14.036;2023-07-31T01:54:06;19.50;99.90
57552;DHT22;43379;48.160;14.036;2023-07-31T01:56:32;19.50;99.90
57552;DHT22;43379;48.160;14.036;2023-07-31T01:58:57;19.50;99.90
57552;DHT22;43379;48.160;14.036;2023-07-31T02:01:23;19.40;99.90
57552;DHT22;43379;48.160;14.036;2023-07-31T02:03:49;19.40;99.90
57552;DHT22;43379;48.160;14.036;2023-07-31T02:06:14;19.40;99.90
57552;DHT22;43379;48.160;14.036;2023-07-31T02:08:40;19.30;99.90
57552;DHT22;43379;48.160;14.036;2023-07-31T02:11:06;19.30;99.90
57552;DHT22;43379;48.160;14.036;2023-07-31T02:13:31;19.30;99.90
57552;DHT22;43379;48.160;14.036;2023-07-31T02:15:57;19.30;99.90
57552;DHT22;43379;48.160;14.036;2023-07-31T02:18:23;19.30;99.90
57552;DHT22;43379;48.160;14.036;2023-07-31T02:20:50;19.30;99.90
57552;DHT22;43379;48.160;14.036;2023-07-31T02:23:19;19.30;99.90
57552;DHT22;43379;48.160;14.036;2023-07-31T02:25:45;19.30;99.90
57552;DHT22;43379;48.160;14.036;2023-07-31T02:28:11;19.30;99.90
57552;DHT22;43379;48.160;14.036;2023-07-31T02:30:36;19.30;99.90
57552;DHT22;43379;48.160;14.036;2023-07-31T02:33:02;19.20;99.90
57552;DHT22;43379;48.160;14.036;2023-07-31T02:35:28;19.20;99.90
57552;DHT22;43379;48.160;14.036;2023-07-31T02:37:53;19.20;99.90
57552;DHT22;43379;48.160;14.036;2023-07-31T02:40:19;19.20;99.90
57552;DHT22;43379;48.160;14.036;2023-07-31T02:42:45;19.10;99.90
57552;DHT22;43379;48.160;14.036;2023-07-31T02:45:10;19.00;99.90
57552;DHT22;43379;48.160;14.036;2023-07-31T02:47:36;19.00;99.90
57552;DHT22;43379;48.160;14.036;2023-07-31T02:50:03;19.00;99.90
57552;DHT22;43379;48.160;14.036;2023-07-31T02:52:29;19.00;99.90
57552;DHT22;43379;48.160;14.036;2023-07-31T02:54:54;19.00;99.90
57552;DHT22;43379;48.160;14.036;2023-07-31T02:57:20;18.90;99.90
57552;DHT22;43379;48.160;14.036;2023-07-31T02:59:46;18.90;99.90
57552;DHT22;43379;48.160;14.036;2023-07-31T03:02:11;18.90;99.90
57552;DHT22;43379;48.160;14.036;2023-07-31T03:04:38;18.80;99.90
57552;DHT22;43379;48.160;14.036;2023-07-31T03:07:04;18.80;99.90
57552;DHT22;43379;48.160;14.036;2023-07-31T03:09:30;18.80;99.90
57552;DHT22;43379;48.160;14.036;2023-07-31T03:11:56;18.80;99.90
57552;DHT22;43379;48.160;14.036;2023-07-31T03:14:21;18.80;99.90
57552;DHT22;43379;48.160;14.036;2023-07-31T03:16:48;18.70;99.90
57552;DHT22;43379;48.160;14.036;2023-07-31T03:19:14;18.70;99.90
57552;DHT22;43379;48.160;14.036;2023-07-31T03:21:40;18.70;99.90
57552;DHT22;43379;48.160;14.036;2023-07-31T03:24:06;18.70;99.90
57552;DHT22;43379;48.160;14.036;2023-07-31T03:26:32;18.70;99.90
57552;DHT22;43379;48.160;14.036;2023-07-31T03:28:58;18.70;99.90
57552;DHT22;43379;48.160;14.036;2023-07-31T03:31:23;18.60;99.90
57552;DHT22;43379;48.160;14.036;2023-07-31T03:33:49;18.70;99.90
57552;DHT22;43379;48.160;14.036;2023-07-31T03:36:14;18.60;99.90
57552;DHT22;43379;48.160;14.036;2023-07-31T03:38:40;18.60;99.90
57552;DHT22;43379;48.160;14.036;2023-07-31T03:41:06;18.60;99.90
57552;DHT22;43379;48.160;14.036;2023-07-31T03:43:32;18.50;99.90
57552;DHT22;43379;48.160;14.036;2023-07-31T03:45:59;18.50;99.90
57552;DHT22;43379;48.160;14.036;2023-07-31T03:48:25;18.50;99.90
57552;DHT22;43379;48.160;14.036;2023-07-31T03:50:51;18.50;99.90
57552;DHT22;43379;48.160;14.036;2023-07-31T03:53:16;18.50;99.90
57552;DHT22;43379;48.160;14.036;2023-07-31T03:55:42;18.50;99.90
57552;DHT22;43379;48.160;14.036;2023-07-31T03:58:08;18.50;99.90
57552;DHT22;43379;48.160;14.036;2023-07-31T04:00:33;18.50;99.90
57552;DHT22;43379;48.160;14.036;2023-07-31T04:02:59;18.50;99.90
57552;DHT22;43379;48.160;14.036;2023-07-31T04:05:25;18.50;99.90
57552;DHT22;43379;48.160;14.036;2023-07-31T04:07:50;18.50;99.90
57552;DHT22;43379;48.160;14.036;2023-07-31T04:10:16;18.50;99.90
57552;DHT22;43379;48.160;14.036;2023-07-31T04:12:42;18.50;99.90
57552;DHT22;43379;48.160;14.036;2023-07-31T04:15:07;18.50;99.90
57552;DHT22;43379;48.160;14.036;2023-07-31T04:17:33;18.50;99.90
57552;DHT22;43379;48.160;14.036;2023-07-31T04:19:59;18.50;99.90
57552;DHT22;43379;48.160;14.036;2023-07-31T04:22:24;18.50;99.90
57552;DHT22;43379;48.160;14.036;2023-07-31T04:24:50;18.40;99.90
57552;DHT22;43379;48.160;14.036;2023-07-31T04:27:16;18.40;99.90
57552;DHT22;43379;48.160;14.036;2023-07-31T04:29:41;18.40;99.90
57552;DHT22;43379;48.160;14.036;2023-07-31T04:32:08;18.50;99.90
57552;DHT22;43379;48.160;14.036;2023-07-31T04:34:33;18.40;99.90
57552;DHT22;43379;48.160;14.036;2023-07-31T04:36:59;18.50;99.90
57552;DHT22;43379;48.160;14.036;2023-07-31T04:39:25;18.50;99.90
57552;DHT22;43379;48.160;14.036;2023-07-31T04:41:50;18.50;99.90
57552;DHT22;43379;48.160;14.036;2023-07-31T04:44:16;18.50;99.90
57552;DHT22;43379;48.160;14.036;2023-07-31T04:46:41;18.50;99.90
57552;DHT22;43379;48.160;14.036;2023-07-31T04:49:07;18.50;99.90
57552;DHT22;43379;48.160;14.036;2023-07-31T04:51:33;18.50;99.90
57552;DHT22;43379;48.160;14.036;2023-07-31T04:53:58;18.50;99.90
57552;DHT22;43379;48.160;14.036;2023-07-31T04:56:24;18.60;99.90
57552;DHT22;43379;48.160;14.036;2023-07-31T04:58:49;18.60;99.90
57552;DHT22;43379;48.160;14.036;2023-07-31T05:01:15;18.70;99.90
57552;DHT22;43379;48.160;14.036;2023-07-31T05:03:41;18.80;99.90
57552;DHT22;43379;48.160;14.036;2023-07-31T05:06:06;18.90;99.90
57552;DHT22;43379;48.160;14.036;2023-07-31T05:08:32;19.00;99.90
57552;DHT22;43379;48.160;14.036;2023-07-31T05:10:58;19.10;99.90
57552;DHT22;43379;48.160;14.036;2023-07-31T05:13:24;19.30;99.90
57552;DHT22;43379;48.160;14.036;2023-07-31T05:15:50;19.40;99.90
57552;DHT22;43379;48.160;14.036;2023-07-31T05:18:15;19.50;99.90
57552;DHT22;43379;48.160;14.036;2023-07-31T05:20:41;19.50;99.90
57552;DHT22;43379;48.160;14.036;2023-07-31T05:23:06;19.60;99.90
57552;DHT22;43379;48.160;14.036;2023-07-31T05:25:32;19.70;99.90
57552;DHT22;43379;48.160;14.036;2023-07-31T05:27:58;19.80;99.90
57552;DHT22;43379;48.160;14.036;2023-07-31T05:30:23;20.00;99.90
57552;DHT22;43379;48.160;14.036;2023-07-31T05:32:49;20.10;99.90
57552;DHT22;43379;48.160;14.036;2023-07-31T05:35:15;20.30;99.90
57552;DHT22;43379;48.160;14.036;2023-07-31T05:37:40;20.40;99.90
57552;DHT22;43379;48.160;14.036;2023-07-31T05:40:06;20.50;99.90
57552;DHT22;43379;48.160;14.036;2023-07-31T05:42:32;20.60;99.90
57552;DHT22;43379;48.160;14.036;2023-07-31T05:44:58;20.70;99.90
57552;DHT22;43379;48.160;14.036;2023-07-31T05:47:23;20.80;99.90
57552;DHT22;43379;48.160;14.036;2023-07-31T05:49:49;20.90;99.90
57552;DHT22;43379;48.160;14.036;2023-07-31T05:52:18;21.10;99.90
57552;DHT22;43379;48.160;14.036;2023-07-31T05:54:44;21.30;99.90
57552;DHT22;43379;48.160;14.036;2023-07-31T05:57:11;21.40;99.90
57552;DHT22;43379;48.160;14.036;2023-07-31T05:59:36;21.60;99.90
57552;DHT22;43379;48.160;14.036;2023-07-31T06:02:02;21.80;99.90
57552;DHT22;43379;48.160;14.036;2023-07-31T06:04:28;22.00;99.90
57552;DHT22;43379;48.160;14.036;2023-07-31T06:06:54;22.10;99.90
57552;DHT22;43379;48.160;14.036;2023-07-31T06:09:19;22.20;99.90
57552;DHT22;43379;48.160;14.036;2023-07-31T06:11:48;22.40;99.90
57552;DHT22;43379;48.160;14.036;2023-07-31T06:14:14;22.60;99.90
57552;DHT22;43379;48.160;14.036;2023-07-31T06:16:40;22.70;99.90
57552;DHT22;43379;48.160;14.036;2023-07-31T06:19:05;22.80;99.90
57552;DHT22;43379;48.160;14.036;2023-07-31T06:21:32;23.00;99.90
57552;DHT22;43379;48.160;14.036;2023-07-31T06:23:58;23.10;99.90
57552;DHT22;43379;48.160;14.036;2023-07-31T06:26:24;23.40;99.90
57552;DHT22;43379;48.160;14.036;2023-07-31T06:28:49;23.40;99.90
57552;DHT22;43379;48.160;14.036;2023-07-31T06:31:15;23.30;99.90
57552;DHT22;43379;48.160;14.036;2023-07-31T06:33:40;23.30;99.90
57552;DHT22;43379;48.160;14.036;2023-07-31T06:36:06;23.30;99.90
57552;DHT22;43379;48.160;14.036;2023-07-31T06:38:32;23.40;99.90
57552;DHT22;43379;48.160;14.036;2023-07-31T06:40:57;23.50;99.90
57552;DHT22;43379;48.160;14.036;2023-07-31T06:43:23;23.60;99.90
57552;DHT22;43379;48.160;14.036;2023-07-31T06:45:49;23.80;99.90
57552;DHT22;43379;48.160;14.036;2023-07-31T06:48:16;23.90;99.90
57552;DHT22;43379;48.160;14.036;2023-07-31T06:50:42;24.10;99.90
57552;DHT22;43379;48.160;14.036;2023-07-31T06:53:08;24.30;99.90
57552;DHT22;43379;48.160;14.036;2023-07-31T06:55:33;24.50;99.90
57552;DHT22;43379;48.160;14.036;2023-07-31T06:57:59;24.70;99.90
57552;DHT22;43379;48.160;14.036;2023-07-31T07:00:24;24.80;99.90
57552;DHT22;43379;48.160;14.036;2023-07-31T07:02:50;24.90;99.90
57552;DHT22;43379;48.160;14.036;2023-07-31T07:05:17;25.00;99.90
57552;DHT22;43379;48.160;14.036;2023-07-31T07:07:43;25.00;99.70
57552;DHT22;43379;48.160;14.036;2023-07-31T07:10:09;25.00;99.90
57552;DHT22;43379;48.160;14.036;2023-07-31T07:12:35;25.10;99.90
57552;DHT22;43379;48.160;14.036;2023-07-31T07:15:01;25.20;99.60
57552;DHT22;43379;48.160;14.036;2023-07-31T07:17:29;25.20;99.10
57552;DHT22;43379;48.160;14.036;2023-07-31T07:19:56;25.30;98.80
57552;DHT22;43379;48.160;14.036;2023-07-31T07:22:23;25.40;98.50
57552;DHT22;43379;48.160;14.036;2023-07-31T07:24:48;25.60;98.60
57552;DHT22;43379;48.160;14.036;2023-07-31T07:27:14;25.80;98.50
57552;DHT22;43379;48.160;14.036;2023-07-31T07:29:40;26.00;97.80
57552;DHT22;43379;48.160;14.036;2023-07-31T07:32:06;26.20;97.70
57552;DHT22;43379;48.160;14.036;2023-07-31T07:34:31;26.40;97.30
57552;DHT22;43379;48.160;14.036;2023-07-31T07:36:57;26.60;96.30
57552;DHT22;43379;48.160;14.036;2023-07-31T07:39:23;26.80;95.40
57552;DHT22;43379;48.160;14.036;2023-07-31T07:41:48;27.00;95.50
57552;DHT22;43379;48.160;14.036;2023-07-31T07:44:14;27.10;95.60
57552;DHT22;43379;48.160;14.036;2023-07-31T07:46:40;27.20;95.10
57552;DHT22;43379;48.160;14.036;2023-07-31T07:49:06;27.30;95.10
57552;DHT22;43379;48.160;14.036;2023-07-31T07:51:32;27.50;94.30
57552;DHT22;43379;48.160;14.036;2023-07-31T07:53:58;27.50;93.30
57552;DHT22;43379;48.160;14.036;2023-07-31T07:56:25;27.50;93.10
57552;DHT22;43379;48.160;14.036;2023-07-31T07:58:52;27.50;92.30
57552;DHT22;43379;48.160;14.036;2023-07-31T08:01:18;27.40;90.60
57552;DHT22;43379;48.160;14.036;2023-07-31T08:03:43;27.40;91.00
57552;DHT22;43379;48.160;14.036;2023-07-31T08:06:09;27.40;91.00
57552;DHT22;43379;48.160;14.036;2023-07-31T08:08:38;27.20;90.20
57552;DHT22;43379;48.160;14.036;2023-07-31T08:11:04;27.20;89.10
57552;DHT22;43379;48.160;14.036;2023-07-31T08:13:30;27.10;89.40
57552;DHT22;43379;48.160;14.036;2023-07-31T08:15:56;26.90;89.40
57552;DHT22;43379;48.160;14.036;2023-07-31T08:18:22;26.90;90.20
57552;DHT22;43379;48.160;14.036;2023-07-31T08:20:47;26.70;90.40
57552;DHT22;43379;48.160;14.036;2023-07-31T08:23:13;26.60;90.20
57552;DHT22;43379;48.160;14.036;2023-07-31T08:25:39;26.60;91.20
57552;DHT22;43379;48.160;14.036;2023-07-31T08:28:05;26.60;91.90
57552;DHT22;43379;48.160;14.036;2023-07-31T08:30:32;26.70;91.10
57552;DHT22;43379;48.160;14.036;2023-07-31T08:32:58;26.90;91.30
57552;DHT22;43379;48.160;14.036;2023-07-31T08:35:25;27.10;91.10
57552;DHT22;43379;48.160;14.036;2023-07-31T08:37:51;27.30;91.70
57552;DHT22;43379;48.160;14.036;2023-07-31T08:40:17;27.50;90.20
57552;DHT22;43379;48.160;14.036;2023-07-31T08:42:46;27.60;89.80
57552;DHT22;43379;48.160;14.036;2023-07-31T08:45:17;27.80;90.50
57552;DHT22;43379;48.160;14.036;2023-07-31T08:47:48;27.80;90.60
57552;DHT22;43379;48.160;14.036;2023-07-31T08:50:16;27.90;90.00
57552;DHT22;43379;48.160;14.036;2023-07-31T08:52:42;27.80;87.30
57552;DHT22;43379;48.160;14.036;2023-07-31T08:55:08;27.80;88.10
57552;DHT22;43379;48.160;14.036;2023-07-31T08:57:36;27.60;89.20
57552;DHT22;43379;48.160;14.036;2023-07-31T09:00:04;27.40;88.40
57552;DHT22;43379;48.160;14.036;2023-07-31T09:02:51;27.20;89.90
57552;DHT22;43379;48.160;14.036;2023-07-31T09:05:19;27.20;90.20
57552;DHT22;43379;48.160;14.036;2023-07-31T09:07:47;26.90;89.10
57552;DHT22;43379;48.160;14.036;2023-07-31T09:10:14;27.00;90.30
57552;DHT22;43379;48.160;14.036;2023-07-31T09:12:39;27.00;90.50
57552;DHT22;43379;48.160;14.036;2023-07-31T09:15:06;26.90;90.90
57552;DHT22;43379;48.160;14.036;2023-07-31T09:17:33;26.90;90.20
57552;DHT22;43379;48.160;14.036;2023-07-31T09:20:32;27.00;90.80
57552;DHT22;43379;48.160;14.036;2023-07-31T09:23:12;27.00;90.60
57552;DHT22;43379;48.160;14.036;2023-07-31T09:25:39;27.10;90.80
57552;DHT22;43379;48.160;14.036;2023-07-31T09:28:09;27.10;91.00
57552;DHT22;43379;48.160;14.036;2023-07-31T09:30:51;27.30;91.10
57552;DHT22;43379;48.160;14.036;2023-07-31T09:33:19;27.40;90.40
57552;DHT22;43379;48.160;14.036;2023-07-31T09:35:44;27.40;89.70
57552;DHT22;43379;48.160;14.036;2023-07-31T09:38:12;27.30;90.50
57552;DHT22;43379;48.160;14.036;2023-07-31T09:40:40;27.30;90.30
57552;DHT22;43379;48.160;14.036;2023-07-31T09:43:14;27.50;90.40
57552;DHT22;43379;48.160;14.036;2023-07-31T09:45:43;27.50;89.60
57552;DHT22;43379;48.160;14.036;2023-07-31T09:48:13;27.80;90.40
57552;DHT22;43379;48.160;14.036;2023-07-31T09:50:45;28.00;91.10
57552;DHT22;43379;48.160;14.036;2023-07-31T09:53:12;28.00;90.10
57552;DHT22;43379;48.160;14.036;2023-07-31T09:55:39;27.90;88.00
57552;DHT22;43379;48.160;14.036;2023-07-31T09:58:09;28.00;87.10
57552;DHT22;43379;48.160;14.036;2023-07-31T10:00:36;27.80;86.30
57552;DHT22;43379;48.160;14.036;2023-07-31T10:03:05;27.80;87.30
57552;DHT22;43379;48.160;14.036;2023-07-31T10:05:35;27.80;88.60
57552;DHT22;43379;48.160;14.036;2023-07-31T10:08:01;27.90;90.20
57552;DHT22;43379;48.160;14.036;2023-07-31T10:10:28;28.00;91.90
57552;DHT22;43379;48.160;14.036;2023-07-31T10:12:55;28.20;90.50
57552;DHT22;43379;48.160;14.036;2023-07-31T10:15:21;28.20;89.60
57552;DHT22;43379;48.160;14.036;2023-07-31T10:17:49;28.30;88.90
57552;DHT22;43379;48.160;14.036;2023-07-31T10:20:16;28.40;90.10
57552;DHT22;43379;48.160;14.036;2023-07-31T10:22:45;28.40;86.60
57552;DHT22;43379;48.160;14.036;2023-07-31T10:25:12;28.30;88.80
57552;DHT22;43379;48.160;14.036;2023-07-31T10:27:39;28.40;88.60
57552;DHT22;43379;48.160;14.036;2023-07-31T10:30:08;28.30;87.90
57552;DHT22;43379;48.160;14.036;2023-07-31T10:32:35;28.40;90.00
57552;DHT22;43379;48.160;14.036;2023-07-31T10:35:02;28.60;90.90
57552;DHT22;43379;48.160;14.036;2023-07-31T10:37:36;28.70;90.50
57552;DHT22;43379;48.160;14.036;2023-07-31T10:40:03;28.80;89.30
57552;DHT22;43379;48.160;14.036;2023-07-31T10:42:38;28.90;89.30
57552;DHT22;43379;48.160;14.036;2023-07-31T10:45:08;29.00;86.40
57552;DHT22;43379;48.160;14.036;2023-07-31T10:48:05;29.10;89.20
57552;DHT22;43379;48.160;14.036;2023-07-31T10:50:33;29.20;90.00
57552;DHT22;43379;48.160;14.036;2023-07-31T10:53:02;29.40;89.90
57552;DHT22;43379;48.160;14.036;2023-07-31T10:55:42;29.50;89.50
57552;DHT22;43379;48.160;14.036;2023-07-31T10:58:13;29.50;84.20
57552;DHT22;43379;48.160;14.036;2023-07-31T11:00:41;29.50;87.90
57552;DHT22;43379;48.160;14.036;2023-07-31T11:03:13;29.40;84.20
57552;DHT22;43379;48.160;14.036;2023-07-31T11:05:52;29.30;85.90
57552;DHT22;43379;48.160;14.036;2023-07-31T11:08:21;29.10;84.30
57552;DHT22;43379;48.160;14.036;2023-07-31T11:13:39;28.70;85.70
57552;DHT22;43379;48.160;14.036;2023-07-31T11:16:05;28.40;85.50
57552;DHT22;43379;48.160;14.036;2023-07-31T11:18:30;28.20;86.00
57552;DHT22;43379;48.160;14.036;2023-07-31T11:20:56;28.20;86.60
57552;DHT22;43379;48.160;14.036;2023-07-31T11:23:22;28.20;84.90
57552;DHT22;43379;48.160;14.036;2023-07-31T11:25:49;28.10;85.80
57552;DHT22;43379;48.160;14.036;2023-07-31T11:28:16;28.10;86.40
57552;DHT22;43379;48.160;14.036;2023-07-31T11:30:44;28.10;87.80
57552;DHT22;43379;48.160;14.036;2023-07-31T11:33:11;28.10;85.60
57552;DHT22;43379;48.160;14.036;2023-07-31T11:35:48;28.00;84.40
57552;DHT22;43379;48.160;14.036;2023-07-31T11:38:31;28.00;83.80
57552;DHT22;43379;48.160;14.036;2023-07-31T11:40:59;28.00;86.20
57552;DHT22;43379;48.160;14.036;2023-07-31T11:43:26;28.00;88.90
57552;DHT22;43379;48.160;14.036;2023-07-31T11:45:56;27.90;84.20
57552;DHT22;43379;48.160;14.036;2023-07-31T11:48:27;27.90;87.30
57552;DHT22;43379;48.160;14.036;2023-07-31T11:50:59;28.10;89.00
57552;DHT22;43379;48.160;14.036;2023-07-31T11:53:45;28.10;89.60
57552;DHT22;43379;48.160;14.036;2023-07-31T11:56:18;28.30;90.50
57552;DHT22;43379;48.160;14.036;2023-07-31T11:58:46;28.30;89.80
57552;DHT22;43379;48.160;14.036;2023-07-31T12:01:15;28.30;87.50
57552;DHT22;43379;48.160;14.036;2023-07-31T12:03:41;28.40;87.70
57552;DHT22;43379;48.160;14.036;2023-07-31T12:06:08;28.50;89.20
57552;DHT22;43379;48.160;14.036;2023-07-31T12:08:34;28.60;89.40
57552;DHT22;43379;48.160;14.036;2023-07-31T12:11:04;28.70;90.10
57552;DHT22;43379;48.160;14.036;2023-07-31T12:13:31;28.80;90.00
57552;DHT22;43379;48.160;14.036;2023-07-31T12:15:59;28.80;89.50
57552;DHT22;43379;48.160;14.036;2023-07-31T12:18:27;28.80;90.80
57552;DHT22;43379;48.160;14.036;2023-07-31T12:20:57;28.90;89.40
57552;DHT22;43379;48.160;14.036;2023-07-31T12:23:28;28.90;88.30
57552;DHT22;43379;48.160;14.036;2023-07-31T12:26:15;28.80;87.50
57552;DHT22;43379;48.160;14.036;2023-07-31T12:28:43;28.80;86.60
57552;DHT22;43379;48.160;14.036;2023-07-31T12:31:11;28.70;87.60
57552;DHT22;43379;48.160;14.036;2023-07-31T12:33:38;28.70;88.80
57552;DHT22;43379;48.160;14.036;2023-07-31T12:36:23;28.70;88.50
57552;DHT22;43379;48.160;14.036;2023-07-31T12:38:52;28.70;87.70
57552;DHT22;43379;48.160;14.036;2023-07-31T12:41:18;28.60;88.60
57552;DHT22;43379;48.160;14.036;2023-07-31T12:43:45;28.50;86.20
57552;DHT22;43379;48.160;14.036;2023-07-31T12:46:11;28.40;84.30
57552;DHT22;43379;48.160;14.036;2023-07-31T12:48:37;28.20;86.10
57552;DHT22;43379;48.160;14.036;2023-07-31T12:51:03;28.20;86.10
57552;DHT22;43379;48.160;14.036;2023-07-31T12:53:29;28.20;87.80
57552;DHT22;43379;48.160;14.036;2023-07-31T12:55:56;28.30;89.00
57552;DHT22;43379;48.160;14.036;2023-07-31T12:58:22;28.30;90.00
57552;DHT22;43379;48.160;14.036;2023-07-31T13:00:47;28.30;90.10
57552;DHT22;43379;48.160;14.036;2023-07-31T13:03:13;28.40;90.10
57552;DHT22;43379;48.160;14.036;2023-07-31T13:05:39;28.40;88.30
57552;DHT22;43379;48.160;14.036;2023-07-31T13:08:05;28.40;89.50
57552;DHT22;43379;48.160;14.036;2023-07-31T13:10:30;28.40;89.70
57552;DHT22;43379;48.160;14.036;2023-07-31T13:12:56;28.40;89.70
57552;DHT22;43379;48.160;14.036;2023-07-31T13:15:22;28.40;89.30
57552;DHT22;43379;48.160;14.036;2023-07-31T13:17:48;28.50;90.20
57552;DHT22;43379;48.160;14.036;2023-07-31T13:20:13;28.50;89.90
57552;DHT22;43379;48.160;14.036;2023-07-31T13:22:39;28.40;88.00
57552;DHT22;43379;48.160;14.036;2023-07-31T13:25:06;28.30;87.90
57552;DHT22;43379;48.160;14.036;2023-07-31T13:27:32;28.20;85.70
57552;DHT22;43379;48.160;14.036;2023-07-31T13:29:58;28.10;86.40
57552;DHT22;43379;48.160;14.036;2023-07-31T13:32:23;28.10;86.50
57552;DHT22;43379;48.160;14.036;2023-07-31T13:34:49;28.00;86.10
57552;DHT22;43379;48.160;14.036;2023-07-31T13:37:15;28.00;87.40
57552;DHT22;43379;48.160;14.036;2023-07-31T13:39:42;28.00;88.20
57552;DHT22;43379;48.160;14.036;2023-07-31T13:42:08;28.00;88.70
57552;DHT22;43379;48.160;14.036;2023-07-31T13:44:40;28.00;86.90
57552;DHT22;43379;48.160;14.036;2023-07-31T13:47:07;28.00;86.60
57552;DHT22;43379;48.160;14.036;2023-07-31T13:49:34;27.90;88.20
57552;DHT22;43379;48.160;14.036;2023-07-31T13:52:00;27.90;88.70
57552;DHT22;43379;48.160;14.036;2023-07-31T13:54:26;27.80;85.70
57552;DHT22;43379;48.160;14.036;2023-07-31T13:56:52;27.70;83.50
57552;DHT22;43379;48.160;14.036;2023-07-31T13:59:18;27.50;84.70
57552;DHT22;43379;48.160;14.036;2023-07-31T14:01:44;27.50;86.00
57552;DHT22;43379;48.160;14.036;2023-07-31T14:04:10;27.40;86.60
57552;DHT22;43379;48.160;14.036;2023-07-31T14:06:36;27.40;86.60
57552;DHT22;43379;48.160;14.036;2023-07-31T14:09:02;27.20;84.00
57552;DHT22;43379;48.160;14.036;2023-07-31T14:11:28;27.20;85.00
57552;DHT22;43379;48.160;14.036;2023-07-31T14:13:54;27.20;87.30
57552;DHT22;43379;48.160;14.036;2023-07-31T14:16:21;27.20;89.50
57552;DHT22;43379;48.160;14.036;2023-07-31T14:18:47;27.20;89.20
57552;DHT22;43379;48.160;14.036;2023-07-31T14:21:13;27.30;89.60
57552;DHT22;43379;48.160;14.036;2023-07-31T14:23:39;27.30;89.30
57552;DHT22;43379;48.160;14.036;2023-07-31T14:26:05;27.30;89.00
57552;DHT22;43379;48.160;14.036;2023-07-31T14:28:31;27.30;89.70
57552;DHT22;43379;48.160;14.036;2023-07-31T14:30:56;27.30;88.90
57552;DHT22;43379;48.160;14.036;2023-07-31T14:33:22;27.30;90.10
57552;DHT22;43379;48.160;14.036;2023-07-31T14:35:48;27.30;88.80
57552;DHT22;43379;48.160;14.036;2023-07-31T14:38:13;27.30;88.80
57552;DHT22;43379;48.160;14.036;2023-07-31T14:40:39;27.30;89.20
57552;DHT22;43379;48.160;14.036;2023-07-31T14:43:04;27.30;89.40
57552;DHT22;43379;48.160;14.036;2023-07-31T14:45:30;27.20;87.00
57552;DHT22;43379;48.160;14.036;2023-07-31T14:47:56;27.10;87.20
57552;DHT22;43379;48.160;14.036;2023-07-31T14:50:22;27.20;89.10
57552;DHT22;43379;48.160;14.036;2023-07-31T14:52:49;27.20;89.40
57552;DHT22;43379;48.160;14.036;2023-07-31T14:55:15;27.20;90.40
57552;DHT22;43379;48.160;14.036;2023-07-31T14:57:40;27.20;90.00
57552;DHT22;43379;48.160;14.036;2023-07-31T15:00:06;27.30;89.10
57552;DHT22;43379;48.160;14.036;2023-07-31T15:02:39;27.30;89.50
57552;DHT22;43379;48.160;14.036;2023-07-31T15:05:05;27.30;89.30
57552;DHT22;43379;48.160;14.036;2023-07-31T15:07:32;27.20;88.00
57552;DHT22;43379;48.160;14.036;2023-07-31T15:09:58;27.20;86.60
57552;DHT22;43379;48.160;14.036;2023-07-31T15:12:23;27.20;88.40
57552;DHT22;43379;48.160;14.036;2023-07-31T15:14:49;27.10;87.00
57552;DHT22;43379;48.160;14.036;2023-07-31T15:17:15;27.10;85.90
57552;DHT22;43379;48.160;14.036;2023-07-31T15:19:41;27.10;86.10
57552;DHT22;43379;48.160;14.036;2023-07-31T15:22:07;27.00;86.00
57552;DHT22;43379;48.160;14.036;2023-07-31T15:24:33;26.90;86.40